Time;durP1;ratioP1;P1;durP2;ratioP2;P2;SDS_P1;SDS_P2;PMS_P1;PMS_P2;Temp;Humidity;BMP_temperature;BMP_pressure;BME280_temperature;BME280_humidity;BME280_pressure;Samples;Min_cycle;Max_cycle;Signal;HPM_P1;HPM_P2
2023/02/17 00:01:25;;;;;;;27.07;20.43;;;9.20;99.90;;;;;;5096001;28;20765;-73
2023/02/17 00:03:53;;;;;;;30.30;22.20;;;9.20;99.90;;;;;;5095251;28;20499;-71
2023/02/17 00:06:22;;;;;;;27.63;21.53;;;9.10;99.90;;;;;;5098039;28;20754;-72
2023/02/17 00:08:50;;;;;;;31.33;22.17;;;8.90;99.90;;;;;;5099430;28;20556;-72
2023/02/17 00:11:17;;;;;;;31.63;22.83;;;8.80;99.90;;;;;;5098875;28;20476;-71
2023/02/17 00:13:45;;;;;;;34.07;22.23;;;8.60;99.90;;;;;;5099403;28;20591;-72
2023/02/17 00:16:15;;;;;;;35.77;24.33;;;8.50;99.90;;;;;;5099201;28;20467;-72
2023/02/17 00:18:42;;;;;;;32.10;22.47;;;8.40;99.90;;;;;;5099837;28;20938;-72
2023/02/17 00:21:14;;;;;;;37.27;25.60;;;8.30;99.90;;;;;;5099468;28;20449;-72
2023/02/17 00:23:42;;;;;;;36.60;24.60;;;8.30;99.90;;;;;;5100123;28;20994;-72
2023/02/17 00:26:09;;;;;;;33.10;23.80;;;8.20;99.90;;;;;;5100893;28;20524;-71
2023/02/17 00:28:36;;;;;;;35.13;25.23;;;8.10;99.90;;;;;;5100644;28;20485;-71
2023/02/17 00:31:07;;;;;;;35.30;25.40;;;8.10;99.90;;;;;;5100145;28;20480;-72
2023/02/17 00:33:34;;;;;;;31.30;23.50;;;8.00;99.90;;;;;;5104777;28;20516;-70
2023/02/17 00:36:04;;;;;;;33.83;22.73;;;8.00;99.90;;;;;;5107575;28;20488;-71
2023/02/17 00:38:31;;;;;;;35.10;23.77;;;8.00;99.90;;;;;;5101911;28;21012;-71
2023/02/17 00:40:59;;;;;;;39.30;25.53;;;8.00;99.90;;;;;;5098921;28;20891;-72
2023/02/17 00:43:26;;;;;;;35.63;25.13;;;8.00;99.90;;;;;;5104100;28;20457;-72
2023/02/17 00:45:54;;;;;;;36.30;24.80;;;8.00;99.90;;;;;;5101542;28;20461;-72
2023/02/17 00:48:21;;;;;;;36.30;24.80;;;8.00;99.90;;;;;;5104548;28;20461;-71
2023/02/17 00:50:48;;;;;;;40.80;26.60;;;8.00;99.90;;;;;;5103595;28;20454;-72
2023/02/17 00:53:15;;;;;;;37.47;25.37;;;8.00;99.90;;;;;;5098728;28;20481;-72
2023/02/17 00:55:42;;;;;;;32.57;23.83;;;8.00;99.90;;;;;;5098199;28;20460;-71
2023/02/17 00:58:10;;;;;;;36.87;26.00;;;8.00;99.90;;;;;;5098399;28;20913;-72
2023/02/17 01:00:37;;;;;;;35.23;24.20;;;8.00;99.90;;;;;;5097821;28;20540;-71
2023/02/17 01:03:04;;;;;;;34.77;24.67;;;8.00;99.90;;;;;;5097523;28;20449;-71
2023/02/17 01:05:31;;;;;;;42.03;26.70;;;8.00;99.90;;;;;;5097445;28;20488;-71
2023/02/17 01:07:58;;;;;;;37.23;25.10;;;8.00;99.90;;;;;;5097527;28;20557;-71
2023/02/17 01:10:25;;;;;;;39.50;25.40;;;8.00;99.90;;;;;;5097437;28;20453;-71
2023/02/17 01:12:52;;;;;;;34.63;24.50;;;8.00;99.90;;;;;;5097484;28;20572;-72
2023/02/17 01:15:20;;;;;;;42.33;25.67;;;8.00;99.90;;;;;;5097445;28;20456;-72
2023/02/17 01:17:47;;;;;;;39.57;24.30;;;8.00;99.90;;;;;;5096663;28;20458;-72
2023/02/17 01:20:14;;;;;;;32.50;24.10;;;8.00;99.90;;;;;;5101669;28;20449;-71
2023/02/17 01:22:41;;;;;;;30.60;24.50;;;8.10;99.90;;;;;;5103123;28;20524;-70
2023/02/17 01:25:08;;;;;;;35.80;24.17;;;8.10;99.90;;;;;;5099526;28;20481;-70
2023/02/17 01:27:35;;;;;;;34.43;23.87;;;8.10;99.90;;;;;;5097221;28;20493;-70
2023/02/17 01:30:03;;;;;;;34.23;24.80;;;8.10;99.90;;;;;;5096984;28;20468;-71
2023/02/17 01:32:31;;;;;;;33.70;22.53;;;8.10;99.90;;;;;;5097092;28;20487;-73
2023/02/17 01:34:58;;;;;;;37.60;23.13;;;8.10;99.90;;;;;;5096864;28;20872;-70
2023/02/17 01:37:25;;;;;;;36.03;25.67;;;8.20;99.90;;;;;;5096703;28;20504;-71
2023/02/17 01:39:52;;;;;;;34.67;22.77;;;8.20;99.90;;;;;;5096384;28;20453;-71
2023/02/17 01:42:19;;;;;;;38.30;24.87;;;8.10;99.90;;;;;;5096419;28;20568;-71
2023/02/17 01:45:23;;;;;;;34.10;22.43;;;8.20;99.90;;;;;;5096625;28;20973;-71
2023/02/17 01:47:56;;;;;;;36.07;23.50;;;8.20;99.90;;;;;;5096875;28;20795;-71
2023/02/17 01:50:28;;;;;;;35.77;24.47;;;8.20;99.90;;;;;;5096471;28;20749;-71
2023/02/17 01:52:55;;;;;;;32.87;23.77;;;8.20;99.90;;;;;;5096165;28;20477;-72
2023/02/17 01:55:25;;;;;;;34.37;24.30;;;8.20;99.90;;;;;;5096276;28;20464;-71
2023/02/17 01:57:55;;;;;;;33.93;22.33;;;8.20;99.90;;;;;;5096491;28;20783;-71
2023/02/17 02:00:26;;;;;;;34.77;23.70;;;8.20;99.90;;;;;;5096086;28;20887;-72
2023/02/17 02:02:54;;;;;;;36.20;23.73;;;8.20;99.90;;;;;;5096088;28;20486;-70
2023/02/17 02:05:22;;;;;;;34.93;24.23;;;8.20;99.90;;;;;;5096296;28;20453;-72
2023/02/17 02:07:51;;;;;;;32.10;23.27;;;8.30;99.90;;;;;;5095979;28;20453;-72
2023/02/17 02:10:19;;;;;;;35.50;24.13;;;8.20;99.90;;;;;;5095940;28;20453;-72
2023/02/17 02:12:47;;;;;;;36.33;24.00;;;8.20;99.90;;;;;;5095777;28;20564;-72
2023/02/17 02:15:16;;;;;;;38.40;25.17;;;8.20;99.90;;;;;;5096341;28;20461;-71
2023/02/17 02:17:51;;;;;;;37.43;24.70;;;8.10;99.90;;;;;;5096417;28;20481;-72
2023/02/17 02:20:56;;;;;;;34.80;24.30;;;8.10;99.90;;;;;;5098509;28;20842;-74
2023/02/17 02:23:48;;;;;;;39.33;25.60;;;8.00;99.90;;;;;;5059620;28;20485;-70
2023/02/17 02:26:38;;;;;;;39.67;25.30;;;8.00;99.90;;;;;;5095943;28;20799;-72
2023/02/17 02:29:26;;;;;;;41.77;26.40;;;7.90;99.90;;;;;;5095948;28;20812;-71
2023/02/17 02:32:06;;;;;;;48.73;27.93;;;7.70;99.90;;;;;;5095651;28;20480;-72
2023/02/17 02:34:39;;;;;;;46.60;29.23;;;7.70;99.90;;;;;;5095437;28;20541;-71
2023/02/17 02:37:12;;;;;;;52.33;30.10;;;7.60;99.90;;;;;;5095665;28;20437;-71
2023/02/17 02:39:44;;;;;;;44.77;29.50;;;7.60;99.90;;;;;;5095412;28;20533;-71
2023/02/17 02:42:14;;;;;;;46.83;28.70;;;7.60;99.90;;;;;;5095245;28;20560;-71
2023/02/17 02:44:41;;;;;;;49.00;30.20;;;7.60;99.90;;;;;;5095510;28;20548;-71
2023/02/17 02:47:47;;;;;;;46.70;29.90;;;7.60;99.90;;;;;;5095356;28;20453;-71
2023/02/17 02:50:17;;;;;;;46.87;30.73;;;7.60;99.90;;;;;;5079977;28;20465;-70
2023/02/17 02:52:56;;;;;;;47.97;30.40;;;7.50;99.90;;;;;;5095146;28;20493;-71
2023/02/17 02:55:35;;;;;;;49.77;31.50;;;7.50;99.90;;;;;;5095343;28;20890;-70
2023/02/17 02:58:10;;;;;;;48.20;31.50;;;7.50;99.90;;;;;;5095546;28;20449;-71
2023/02/17 03:00:42;;;;;;;53.17;32.27;;;7.50;99.90;;;;;;5095678;28;20449;-71
2023/02/17 03:03:15;;;;;;;48.73;30.80;;;7.50;99.90;;;;;;5096207;28;20776;-72
2023/02/17 03:05:53;;;;;;;46.63;29.60;;;7.50;99.90;;;;;;5095415;28;20976;-71
2023/02/17 03:08:27;;;;;;;48.43;31.10;;;7.50;99.90;;;;;;5095455;28;20453;-70
2023/02/17 03:10:55;;;;;;;56.10;30.93;;;7.50;99.90;;;;;;5095312;28;20468;-70
2023/02/17 03:13:22;;;;;;;51.87;33.63;;;7.50;99.90;;;;;;5095640;28;20481;-71
2023/02/17 03:15:49;;;;;;;57.63;33.00;;;7.50;99.90;;;;;;5095060;28;20501;-71
2023/02/17 03:18:16;;;;;;;48.93;31.93;;;7.50;99.90;;;;;;5094861;28;20549;-71
2023/02/17 03:20:49;;;;;;;50.27;32.17;;;7.50;99.90;;;;;;5094899;28;20536;-72
2023/02/17 03:23:16;;;;;;;50.47;33.10;;;7.40;99.90;;;;;;5094894;28;20545;-71
2023/02/17 03:25:43;;;;;;;54.97;32.60;;;7.40;99.90;;;;;;5094892;28;20544;-71
2023/02/17 03:28:10;;;;;;;51.73;31.13;;;7.40;99.90;;;;;;5094804;28;20475;-71
2023/02/17 03:30:37;;;;;;;47.60;31.80;;;7.50;99.90;;;;;;5094397;28;20547;-70
2023/02/17 03:33:04;;;;;;;59.80;33.80;;;7.50;99.90;;;;;;5094309;28;20477;-72
2023/02/17 03:35:31;;;;;;;50.60;32.43;;;7.50;99.90;;;;;;5094798;28;20544;-71
2023/02/17 03:37:59;;;;;;;56.57;33.83;;;7.50;99.90;;;;;;5094710;28;20989;-71
2023/02/17 03:40:26;;;;;;;57.27;32.50;;;7.50;99.90;;;;;;5095718;28;20464;-71
2023/02/17 03:42:53;;;;;;;51.77;32.50;;;7.50;99.90;;;;;;5098923;28;20463;-70
2023/02/17 03:45:20;;;;;;;49.87;33.00;;;7.50;99.90;;;;;;5099193;28;20556;-71
2023/02/17 03:47:47;;;;;;;55.20;33.37;;;7.50;99.90;;;;;;5099307;28;20846;-72
2023/02/17 03:50:14;;;;;;;56.80;33.93;;;7.60;99.90;;;;;;5098921;28;20492;-71
2023/02/17 03:52:41;;;;;;;50.90;33.30;;;7.60;99.90;;;;;;5098879;28;20509;-70
2023/02/17 03:55:09;;;;;;;55.47;33.53;;;7.60;99.90;;;;;;5098631;28;20516;-71
2023/02/17 03:57:36;;;;;;;54.60;32.90;;;7.60;99.90;;;;;;5098212;28;20453;-72
2023/02/17 04:00:04;;;;;;;57.27;35.50;;;7.60;99.90;;;;;;5099080;28;20449;-70
2023/02/17 04:02:30;;;;;;;55.93;34.23;;;7.60;99.90;;;;;;5099220;28;20449;-69
2023/02/17 04:04:57;;;;;;;50.07;30.90;;;7.60;99.90;;;;;;5099996;28;20954;-72
2023/02/17 04:07:24;;;;;;;55.97;33.80;;;7.60;99.90;;;;;;5099311;28;20540;-72
2023/02/17 04:09:51;;;;;;;63.90;36.23;;;7.60;99.90;;;;;;5099791;28;20856;-70
2023/02/17 04:12:19;;;;;;;53.20;34.30;;;7.60;99.90;;;;;;5099931;28;20957;-72
2023/02/17 04:14:46;;;;;;;63.07;32.73;;;7.60;99.90;;;;;;5100419;28;20463;-70
2023/02/17 04:17:13;;;;;;;54.10;33.87;;;7.60;99.90;;;;;;5100422;28;20548;-71
2023/02/17 04:19:40;;;;;;;54.67;34.70;;;7.60;99.90;;;;;;5099599;28;20543;-71
2023/02/17 04:22:07;;;;;;;52.87;32.50;;;7.60;99.90;;;;;;5099736;28;20453;-71
2023/02/17 04:24:35;;;;;;;52.20;31.23;;;7.60;99.90;;;;;;5100186;28;20468;-71
2023/02/17 04:27:02;;;;;;;57.97;34.90;;;7.60;99.90;;;;;;5103696;28;20516;-70
2023/02/17 04:29:30;;;;;;;59.17;33.53;;;7.60;99.90;;;;;;5103906;28;20495;-71
2023/02/17 04:31:57;;;;;;;52.77;33.50;;;7.70;99.90;;;;;;5100693;28;20481;-71
2023/02/17 04:34:23;;;;;;;60.20;33.70;;;7.70;99.90;;;;;;5098970;28;20527;-71
2023/02/17 04:36:50;;;;;;;53.00;34.53;;;7.70;99.90;;;;;;5098426;28;20463;-71
2023/02/17 04:39:18;;;;;;;53.70;33.33;;;7.70;99.90;;;;;;5097990;28;20801;-71
2023/02/17 04:41:45;;;;;;;54.00;33.77;;;7.70;99.90;;;;;;5097288;28;20481;-71
2023/02/17 04:44:12;;;;;;;52.67;33.73;;;7.70;99.90;;;;;;5097416;28;20544;-70
2023/02/17 04:46:40;;;;;;;52.83;32.97;;;7.70;99.90;;;;;;5097573;28;20807;-71
2023/02/17 04:49:06;;;;;;;51.73;32.97;;;7.70;99.90;;;;;;5097399;28;20536;-73
2023/02/17 04:51:33;;;;;;;52.93;33.37;;;7.70;99.90;;;;;;5097294;28;20460;-72
2023/02/17 04:54:00;;;;;;;55.13;33.63;;;7.80;99.90;;;;;;5097361;28;20572;-72
2023/02/17 04:56:27;;;;;;;45.93;29.77;;;7.80;99.90;;;;;;5097445;28;20464;-72
2023/02/17 04:58:54;;;;;;;52.80;31.57;;;7.80;99.90;;;;;;5097270;28;20548;-72
2023/02/17 05:01:21;;;;;;;49.17;29.67;;;7.80;99.90;;;;;;5096943;28;20468;-70
2023/02/17 05:03:49;;;;;;;50.20;30.93;;;7.90;99.90;;;;;;5097200;28;20459;-70
2023/02/17 05:06:16;;;;;;;49.90;30.37;;;7.90;99.90;;;;;;5097474;28;20453;-71
2023/02/17 05:08:43;;;;;;;51.40;32.23;;;7.90;99.90;;;;;;5097082;28;20460;-71
2023/02/17 05:11:10;;;;;;;53.17;31.77;;;7.90;99.90;;;;;;5097297;28;20552;-71
2023/02/17 05:13:36;;;;;;;52.73;30.17;;;7.90;99.90;;;;;;5097190;28;20531;-71
2023/02/17 05:16:04;;;;;;;50.07;31.23;;;7.90;99.90;;;;;;5096315;28;20477;-72
2023/02/17 05:18:30;;;;;;;51.53;31.63;;;7.90;99.90;;;;;;5097246;28;20540;-71
2023/02/17 05:20:59;;;;;;;54.23;31.83;;;7.90;99.90;;;;;;5097101;28;20460;-70
2023/02/17 05:23:25;;;;;;;56.07;32.13;;;7.90;99.90;;;;;;5096993;28;20556;-71
2023/02/17 05:25:53;;;;;;;49.10;32.33;;;7.90;99.90;;;;;;5096979;28;20461;-71
2023/02/17 05:28:19;;;;;;;54.10;31.40;;;8.00;99.90;;;;;;5096444;28;20913;-70
2023/02/17 05:30:48;;;;;;;50.27;31.20;;;7.90;99.90;;;;;;5096375;28;20536;-71
2023/02/17 05:33:15;;;;;;;52.93;31.70;;;7.90;99.90;;;;;;5096344;28;20513;-70
2023/02/17 05:35:42;;;;;;;55.20;31.63;;;7.90;99.90;;;;;;5096656;28;20464;-71
2023/02/17 05:38:10;;;;;;;54.03;32.40;;;7.90;99.90;;;;;;5096634;28;20467;-71
2023/02/17 05:40:37;;;;;;;55.33;32.73;;;7.90;99.90;;;;;;5096285;28;20491;-71
2023/02/17 05:43:03;;;;;;;51.73;33.13;;;7.90;99.90;;;;;;5096619;28;20481;-70
2023/02/17 05:45:30;;;;;;;49.83;32.07;;;8.00;99.90;;;;;;5096432;28;20457;-71
2023/02/17 05:47:57;;;;;;;54.10;31.10;;;7.90;99.90;;;;;;5096431;28;20936;-72
2023/02/17 05:50:24;;;;;;;54.97;31.10;;;7.90;99.90;;;;;;5096606;28;20556;-71
2023/02/17 05:52:51;;;;;;;59.50;31.63;;;7.90;99.90;;;;;;5096341;28;20495;-70
2023/02/17 05:55:19;;;;;;;52.87;32.70;;;7.90;99.90;;;;;;5095803;28;20548;-71
2023/02/17 05:57:46;;;;;;;56.53;33.23;;;7.90;99.90;;;;;;5096334;28;20831;-71
2023/02/17 06:00:14;;;;;;;58.13;32.13;;;8.00;99.90;;;;;;5078663;28;20830;-71
2023/02/17 06:02:41;;;;;;;54.97;33.60;;;8.00;99.90;;;;;;5074883;28;20497;-71
2023/02/17 06:05:09;;;;;;;62.80;32.97;;;8.00;99.90;;;;;;5075630;28;20944;-71
2023/02/17 06:07:36;;;;;;;52.67;30.67;;;8.00;99.90;;;;;;5075286;28;20458;-71
2023/02/17 06:10:04;;;;;;;51.97;31.50;;;8.00;99.90;;;;;;5075397;28;20541;-70
2023/02/17 06:12:32;;;;;;;49.50;30.43;;;8.00;99.90;;;;;;5075341;28;20505;-71
2023/02/17 06:14:59;;;;;;;49.90;32.70;;;8.00;99.90;;;;;;5075855;28;20554;-70
2023/02/17 06:17:26;;;;;;;53.17;32.60;;;8.00;99.90;;;;;;5076427;28;20486;-71
2023/02/17 06:19:53;;;;;;;50.00;31.60;;;8.00;99.90;;;;;;5076304;28;20800;-71
2023/02/17 06:22:20;;;;;;;49.90;29.37;;;8.00;99.90;;;;;;5075800;28;20830;-71
2023/02/17 06:24:47;;;;;;;48.43;30.43;;;8.00;99.90;;;;;;5075867;28;20541;-72
2023/02/17 06:27:13;;;;;;;49.63;29.83;;;8.00;99.90;;;;;;5076300;28;20457;-70
2023/02/17 06:29:42;;;;;;;48.30;29.67;;;8.00;99.90;;;;;;5076732;28;20454;-70
2023/02/17 06:32:09;;;;;;;52.87;33.00;;;8.00;99.90;;;;;;5076168;28;20465;-71
2023/02/17 06:34:36;;;;;;;48.87;31.27;;;8.00;99.90;;;;;;5075843;28;20513;-71
2023/02/17 06:37:03;;;;;;;50.07;30.10;;;8.00;99.90;;;;;;5076555;28;20497;-71
2023/02/17 06:39:30;;;;;;;49.80;29.33;;;8.00;99.90;;;;;;5076245;28;20501;-71
2023/02/17 06:41:56;;;;;;;51.50;29.50;;;8.00;99.90;;;;;;5075250;28;20601;-72
2023/02/17 06:44:23;;;;;;;50.50;29.17;;;8.00;99.90;;;;;;5075490;28;20545;-71
2023/02/17 06:46:51;;;;;;;48.47;29.10;;;8.00;99.90;;;;;;5075127;28;20451;-72
2023/02/17 06:49:19;;;;;;;48.73;30.17;;;8.10;99.90;;;;;;5075270;28;20458;-71
2023/02/17 06:51:45;;;;;;;50.20;30.23;;;8.10;99.90;;;;;;5075007;28;20537;-72
2023/02/17 06:54:12;;;;;;;43.70;29.70;;;8.20;99.90;;;;;;5074990;28;20574;-71
2023/02/17 06:56:39;;;;;;;46.40;29.60;;;8.20;99.90;;;;;;5075242;28;20790;-71
2023/02/17 06:59:06;;;;;;;43.37;27.80;;;8.20;99.90;;;;;;5075145;28;20458;-70
2023/02/17 07:01:33;;;;;;;41.60;27.67;;;8.30;99.90;;;;;;5074541;28;20941;-71
2023/02/17 07:04:01;;;;;;;45.47;29.53;;;8.30;99.90;;;;;;5074602;28;20456;-71
2023/02/17 07:06:28;;;;;;;49.80;27.47;;;8.30;99.90;;;;;;5081489;28;20859;-70
2023/02/17 07:08:55;;;;;;;41.47;27.10;;;8.30;99.90;;;;;;5075167;28;20773;-71
2023/02/17 07:11:22;;;;;;;41.17;27.30;;;8.40;99.90;;;;;;5074946;28;20561;-71
2023/02/17 07:13:49;;;;;;;38.97;24.27;;;8.40;99.90;;;;;;5074398;28;20510;-71
2023/02/17 07:16:16;;;;;;;42.00;26.70;;;8.40;99.90;;;;;;5073842;28;20541;-71
2023/02/17 07:18:43;;;;;;;36.97;23.97;;;8.50;99.90;;;;;;5074784;28;20454;-71
2023/02/17 07:21:11;;;;;;;35.23;23.23;;;8.50;99.90;;;;;;5074474;28;20966;-71
2023/02/17 07:23:38;;;;;;;36.73;24.73;;;8.50;99.90;;;;;;5074643;28;20482;-71
2023/02/17 07:26:08;;;;;;;35.03;24.00;;;8.50;99.90;;;;;;5074426;28;20454;-71
2023/02/17 07:28:35;;;;;;;34.83;24.40;;;8.60;99.90;;;;;;5074801;28;20485;-71
2023/02/17 07:31:06;;;;;;;33.33;22.77;;;8.60;99.90;;;;;;5074768;28;20520;-71
2023/02/17 07:33:33;;;;;;;36.40;22.53;;;8.60;99.90;;;;;;5074703;28;20477;-71
2023/02/17 07:36:00;;;;;;;30.83;21.50;;;8.70;99.90;;;;;;5074674;28;20927;-73
2023/02/17 07:38:28;;;;;;;28.00;21.00;;;8.70;99.90;;;;;;5075298;28;20542;-73
2023/02/17 07:40:55;;;;;;;31.37;21.50;;;8.80;99.90;;;;;;5075454;28;20565;-72
2023/02/17 07:43:22;;;;;;;29.50;20.47;;;8.80;99.90;;;;;;5074255;28;20454;-70
2023/02/17 07:45:49;;;;;;;27.67;20.10;;;8.90;99.90;;;;;;5074477;28;20546;-72
2023/02/17 07:48:16;;;;;;;28.10;20.80;;;8.90;99.90;;;;;;5074084;28;20489;-72
2023/02/17 07:50:42;;;;;;;28.63;21.30;;;8.90;99.90;;;;;;5074215;28;20951;-71
2023/02/17 07:53:09;;;;;;;26.57;19.17;;;8.90;99.90;;;;;;5074089;28;20541;-71
2023/02/17 07:55:37;;;;;;;27.63;19.20;;;8.90;99.90;;;;;;5074475;28;20538;-71
2023/02/17 07:58:04;;;;;;;27.10;19.20;;;9.00;99.90;;;;;;5074244;28;20965;-71
2023/02/17 08:00:31;;;;;;;24.73;18.23;;;9.00;99.90;;;;;;5074829;28;20536;-72
2023/02/17 08:02:58;;;;;;;25.33;19.70;;;9.00;99.90;;;;;;5074807;28;20537;-72
2023/02/17 08:05:25;;;;;;;20.17;16.83;;;9.10;99.90;;;;;;5074514;28;20868;-71
2023/02/17 08:13:17;;;;;;;22.97;18.10;;;9.10;99.90;;;;;;5075308;28;20486;-72
2023/02/17 08:13:21;;;;;;;21.93;16.30;;;9.20;99.90;;;;;;5073864;28;20631;-71
2023/02/17 08:15:48;;;;;;;23.53;17.20;;;9.20;99.90;;;;;;5074340;28;20482;-71
2023/02/17 08:18:15;;;;;;;21.27;16.57;;;9.20;99.90;;;;;;5074360;28;20494;-72
2023/02/17 08:20:42;;;;;;;22.17;16.13;;;9.30;99.90;;;;;;5076008;28;20458;-71
2023/02/17 08:23:08;;;;;;;22.70;16.70;;;9.30;99.90;;;;;;5082662;28;20455;-72
2023/02/17 08:25:36;;;;;;;21.97;16.87;;;9.40;99.90;;;;;;5078449;28;20478;-72
2023/02/17 08:28:05;;;;;;;20.83;16.77;;;9.40;99.90;;;;;;5079085;28;20458;-71
2023/02/17 08:30:35;;;;;;;19.17;15.60;;;9.40;99.90;;;;;;5079100;28;20528;-71
2023/02/17 08:33:02;;;;;;;20.73;15.43;;;9.40;99.90;;;;;;5079358;28;20531;-72
2023/02/17 08:35:29;;;;;;;21.17;15.93;;;9.40;99.90;;;;;;5078681;28;20518;-72
2023/02/17 08:37:56;;;;;;;18.33;15.57;;;9.40;99.90;;;;;;5078423;28;20450;-71
2023/02/17 08:40:23;;;;;;;21.17;15.60;;;9.40;99.90;;;;;;5077277;28;20481;-70
2023/02/17 08:42:50;;;;;;;24.40;17.10;;;9.30;99.90;;;;;;5077473;28;20453;-71
2023/02/17 08:45:19;;;;;;;22.43;17.20;;;9.30;99.90;;;;;;5077727;28;20485;-71
2023/02/17 08:47:49;;;;;;;23.23;17.37;;;9.30;99.90;;;;;;5077646;28;20848;-71
2023/02/17 08:50:18;;;;;;;22.57;15.77;;;9.30;99.90;;;;;;5077607;28;20434;-73
2023/02/17 08:52:46;;;;;;;21.60;16.83;;;9.30;99.90;;;;;;5077838;28;20765;-72
2023/02/17 08:55:14;;;;;;;24.40;17.00;;;9.30;99.90;;;;;;5077496;28;20577;-72
2023/02/17 08:57:40;;;;;;;23.53;17.30;;;9.30;99.90;;;;;;5077870;28;20523;-72
2023/02/17 09:00:10;;;;;;;21.90;16.70;;;9.30;99.90;;;;;;5077220;28;20739;-72
2023/02/17 09:02:41;;;;;;;24.23;16.33;;;9.30;99.90;;;;;;5077392;28;20539;-72
2023/02/17 09:05:08;;;;;;;23.83;17.10;;;9.30;99.90;;;;;;5077751;28;20434;-69
2023/02/17 09:07:35;;;;;;;21.80;16.40;;;9.30;99.90;;;;;;5077652;28;20778;-72
2023/02/17 09:10:03;;;;;;;25.60;17.97;;;9.30;99.90;;;;;;5076933;28;20489;-71
2023/02/17 09:12:30;;;;;;;23.23;16.90;;;9.30;99.90;;;;;;5077349;28;20454;-72
2023/02/17 09:14:57;;;;;;;23.90;16.70;;;9.30;99.90;;;;;;5076885;28;20589;-69
2023/02/17 09:17:24;;;;;;;26.60;17.40;;;9.30;99.90;;;;;;5077098;28;20481;-71
2023/02/17 09:19:53;;;;;;;21.77;17.90;;;9.30;99.90;;;;;;5077311;28;20852;-71
2023/02/17 09:22:20;;;;;;;22.13;17.73;;;9.30;99.90;;;;;;5076741;28;20849;-72
2023/02/17 09:24:47;;;;;;;22.90;17.20;;;9.30;99.90;;;;;;5076845;28;20454;-70
2023/02/17 09:27:14;;;;;;;27.43;19.10;;;9.30;99.90;;;;;;5076961;28;20497;-72
2023/02/17 09:29:41;;;;;;;26.43;18.03;;;9.30;99.90;;;;;;5076793;28;20458;-71
2023/02/17 09:34:51;;;;;;;26.50;19.97;;;9.30;99.90;;;;;;5087959;28;20481;-71
2023/02/17 09:37:19;;;;;;;24.03;18.80;;;9.30;99.90;;;;;;5092312;28;20518;-71
2023/02/17 09:39:47;;;;;;;27.03;19.17;;;9.30;99.90;;;;;;5096065;28;20464;-72
2023/02/17 09:42:19;;;;;;;25.00;18.80;;;9.30;99.90;;;;;;5096103;28;20477;-71
2023/02/17 09:44:50;;;;;;;29.10;19.50;;;9.30;99.90;;;;;;5096386;28;20438;-72
2023/02/17 09:47:22;;;;;;;25.10;17.87;;;9.30;99.90;;;;;;5094995;28;20471;-71
2023/02/17 09:50:02;;;;;;;29.00;20.67;;;9.30;99.90;;;;;;5096665;28;20451;-71
2023/02/17 09:52:35;;;;;;;27.60;20.20;;;9.30;99.90;;;;;;5096394;28;20438;-72
2023/02/17 09:55:06;;;;;;;29.23;21.50;;;9.20;99.90;;;;;;5096512;28;20470;-72
2023/02/17 09:57:37;;;;;;;25.53;19.07;;;9.30;99.90;;;;;;5076724;28;20537;-72
2023/02/17 10:00:10;;;;;;;27.63;20.67;;;9.20;99.90;;;;;;5076307;28;20497;-71
2023/02/17 10:02:46;;;;;;;27.57;19.90;;;9.20;99.90;;;;;;5076271;28;20518;-72
2023/02/17 10:05:19;;;;;;;26.30;20.23;;;9.30;99.90;;;;;;5076410;28;20929;-72
2023/02/17 10:07:50;;;;;;;29.00;21.63;;;9.30;99.90;;;;;;5077858;28;20469;-72
2023/02/17 10:10:22;;;;;;;27.33;19.83;;;9.30;99.90;;;;;;5076989;28;20525;-73
2023/02/17 10:12:53;;;;;;;33.10;21.93;;;9.20;99.90;;;;;;5077232;28;20443;-71
2023/02/17 10:15:24;;;;;;;30.50;21.23;;;9.20;99.90;;;;;;5078550;28;20508;-71
2023/02/17 10:17:57;;;;;;;35.00;23.60;;;9.20;99.90;;;;;;5078114;28;20442;-72
2023/02/17 10:20:31;;;;;;;32.60;22.60;;;9.30;99.90;;;;;;5077339;28;20915;-72
2023/02/17 10:23:06;;;;;;;31.63;20.97;;;9.30;99.90;;;;;;5076111;28;20529;-71
2023/02/17 10:25:45;;;;;;;28.73;21.53;;;9.20;99.90;;;;;;5077321;28;20445;-71
2023/02/17 10:28:18;;;;;;;31.10;21.13;;;9.30;99.90;;;;;;5076127;28;20447;-72
2023/02/17 10:30:54;;;;;;;31.60;22.20;;;9.30;99.90;;;;;;5075861;28;20935;-72
2023/02/17 10:33:28;;;;;;;30.27;21.47;;;9.30;99.90;;;;;;5076124;28;20492;-72
2023/02/17 10:36:06;;;;;;;30.27;22.80;;;9.30;99.90;;;;;;5075925;28;20498;-72
2023/02/17 10:38:47;;;;;;;32.37;21.67;;;9.30;99.90;;;;;;5075772;28;20954;-71
2023/02/17 10:41:17;;;;;;;27.90;22.57;;;9.30;99.90;;;;;;5075301;28;20971;-71
2023/02/17 10:43:45;;;;;;;31.03;22.40;;;9.30;99.90;;;;;;5075416;28;20812;-72
2023/02/17 10:46:15;;;;;;;32.63;23.73;;;9.30;99.90;;;;;;5074897;28;21040;-72
2023/02/17 10:48:47;;;;;;;31.47;22.70;;;9.40;99.90;;;;;;5075010;28;20537;-71
2023/02/17 10:51:19;;;;;;;29.90;22.23;;;9.40;99.90;;;;;;5075540;28;20865;-72
2023/02/17 10:53:49;;;;;;;31.30;21.97;;;9.40;99.90;;;;;;5074931;28;20782;-72
2023/02/17 10:56:21;;;;;;;31.63;21.30;;;9.40;99.90;;;;;;5074477;28;20541;-70
2023/02/17 10:58:53;;;;;;;32.43;22.43;;;9.50;99.90;;;;;;5074852;28;20438;-72
2023/02/17 11:01:22;;;;;;;33.30;22.73;;;9.50;99.90;;;;;;5074953;28;20453;-70
2023/02/17 11:04:00;;;;;;;32.37;22.03;;;9.50;99.90;;;;;;5074624;28;20530;-71
2023/02/17 11:06:30;;;;;;;27.93;20.57;;;9.60;99.90;;;;;;5074761;28;20449;-71
2023/02/17 11:09:00;;;;;;;26.50;20.33;;;9.60;99.90;;;;;;5074339;28;20469;-70
2023/02/17 11:11:30;;;;;;;25.60;19.67;;;9.60;99.90;;;;;;5075578;28;20448;-71
2023/02/17 11:14:03;;;;;;;29.93;19.70;;;9.70;99.90;;;;;;5094750;28;20741;-70
2023/02/17 11:16:35;;;;;;;26.00;20.10;;;9.70;99.90;;;;;;5076506;28;20806;-71
2023/02/17 11:19:03;;;;;;;24.67;20.33;;;9.80;99.90;;;;;;5074753;28;20791;-71
2023/02/17 11:21:33;;;;;;;25.33;19.90;;;9.80;99.90;;;;;;5074382;28;20454;-71
2023/02/17 11:24:02;;;;;;;26.47;19.67;;;9.80;99.90;;;;;;5074753;28;20459;-71
2023/02/17 11:26:31;;;;;;;21.17;17.27;;;9.90;99.90;;;;;;5074473;28;20541;-72
2023/02/17 11:29:08;;;;;;;28.00;18.90;;;9.90;99.90;;;;;;5074237;28;20532;-72
2023/02/17 11:31:35;;;;;;;26.47;19.37;;;9.90;99.90;;;;;;5074088;28;20913;-72
2023/02/17 11:34:12;;;;;;;24.50;18.10;;;10.00;99.90;;;;;;5073994;28;20454;-71
2023/02/17 11:36:43;;;;;;;23.50;17.30;;;10.10;99.90;;;;;;5074147;28;20460;-71
2023/02/17 11:39:21;;;;;;;22.33;17.40;;;10.10;99.90;;;;;;5074327;28;20512;-72
2023/02/17 11:41:48;;;;;;;21.57;17.43;;;10.10;99.90;;;;;;5073928;28;20955;-71
2023/02/17 11:44:23;;;;;;;19.80;16.77;;;10.20;99.90;;;;;;5074086;28;20536;-71
2023/02/17 11:46:58;;;;;;;23.60;17.40;;;10.30;99.90;;;;;;5073738;28;20516;-70
2023/02/17 11:49:46;;;;;;;21.60;16.40;;;10.30;99.90;;;;;;5073990;28;20524;-72
2023/02/17 11:52:25;;;;;;;19.03;15.37;;;10.30;99.90;;;;;;5073909;28;20481;-71
2023/02/17 11:55:15;;;;;;;18.83;14.53;;;10.30;99.90;;;;;;5073835;28;20472;-72
2023/02/17 11:57:46;;;;;;;18.50;14.30;;;10.40;99.90;;;;;;5074199;28;20465;-72
2023/02/17 12:00:17;;;;;;;21.27;15.33;;;10.50;99.90;;;;;;5074843;28;20529;-72
2023/02/17 12:03:09;;;;;;;19.43;14.90;;;10.50;99.90;;;;;;5077882;28;20442;-70
2023/02/17 12:05:53;;;;;;;20.97;15.20;;;10.50;99.90;;;;;;5078021;28;20442;-71
2023/02/17 12:08:27;;;;;;;21.60;15.43;;;10.60;99.90;;;;;;5078400;28;20541;-71
2023/02/17 12:11:03;;;;;;;15.77;13.50;;;10.60;99.90;;;;;;5078150;28;20457;-70
2023/02/17 12:13:42;;;;;;;15.10;13.43;;;10.70;99.90;;;;;;5078238;28;20452;-72
2023/02/17 12:16:25;;;;;;;16.00;13.57;;;10.70;99.90;;;;;;5078284;28;20533;-71
2023/02/17 12:19:03;;;;;;;15.03;12.83;;;10.70;99.90;;;;;;5078309;28;20456;-72
2023/02/17 12:21:44;;;;;;;16.07;12.30;;;10.80;99.90;;;;;;5077832;28;20453;-70
2023/02/17 12:24:28;;;;;;;14.90;12.20;;;10.90;99.90;;;;;;5078057;28;20754;-71
2023/02/17 12:27:06;;;;;;;14.37;12.03;;;10.90;99.90;;;;;;5078058;28;20460;-71
2023/02/17 12:29:52;;;;;;;14.57;12.30;;;11.00;99.90;;;;;;5077782;28;20521;-72
2023/02/17 12:32:33;;;;;;;13.40;11.13;;;11.10;99.90;;;;;;5077618;28;20943;-72
2023/02/17 12:35:13;;;;;;;19.13;11.43;;;11.10;99.90;;;;;;5077766;28;20466;-72
2023/02/17 12:37:50;;;;;;;13.13;11.07;;;11.20;99.90;;;;;;5078007;28;20930;-70
2023/02/17 12:40:31;;;;;;;10.50;9.40;;;11.20;99.90;;;;;;5077363;28;20470;-71
2023/02/17 12:43:02;;;;;;;14.00;11.20;;;11.30;99.90;;;;;;5077796;28;20438;-70
2023/02/17 12:45:37;;;;;;;12.80;10.20;;;11.40;99.90;;;;;;5077777;28;20550;-71
2023/02/17 12:48:09;;;;;;;12.47;10.10;;;11.40;99.90;;;;;;5077768;28;20537;-72
2023/02/17 12:50:39;;;;;;;15.20;9.90;;;11.50;99.90;;;;;;5078034;28;20848;-71
2023/02/17 12:53:12;;;;;;;12.30;9.63;;;11.50;99.90;;;;;;5078787;28;20442;-71
2023/02/17 12:55:47;;;;;;;11.80;9.13;;;11.60;99.90;;;;;;5077447;28;20553;-71